Brainerd, MN

10:47 PM CST on February 12, 2016 (GMT -0600)
Oak Lawn Township | | Change Station
CLOSE
Current Station
Personal Weather Station
Location: Brainerd, MN
Elevation: 1263 ft
Nearby Weather Stations
Active Advisory: Wind Chill Advisory

Elev 1263 ft 46.36 °N, 94.12 °W | Updated 1 second ago

Mostly Cloudy
Mostly Cloudy
-8.7 °F
Feels Like -9 °F
N
1.1
Wind Variable Wind from SW

Today
High -- | Low -- °F
--% Chance of Precip.
Yesterday
High -- | Low -- °F
Precip. -- in
Pressure 30.69 in
Visibility 10.0 miles
Clouds Clear
Windchill -9 °F
Dew Point -15 °F
Humidity 72%
Rainfall 0.00 in
Snow Depth Not available.
7:25 AM 5:37 PM
Waxing Crescent, 27% visible
METAR KBRD 130353Z AUTO 33009KT 10SM CLR M21/M27 A3056 RMK AO2 SLP390 T12111267
Pressure 30.69 in
Visibility 10.0 miles
Clouds Clear
Windchill -9 °F
Dew Point -15 °F
Humidity 72%
Rainfall 0.00 in
Snow Depth Not available.
7:25 AM 5:37 PM
Waxing Crescent, 27% visible
METAR KBRD 130353Z AUTO 33009KT 10SM CLR M21/M27 A3056 RMK AO2 SLP390 T12111267

10-Day Weather Forecast

Almanac

Astronomy

Feb. 12, 2016 Rise Set
Actual Time
Civil Twilight
Nautical Twilight
Astronomical Twilight
Moon
Length of Visible Light
Length of Day
Tomorrow will be .
, % of the Moon is Illuminated

Today's Extremes

State Highs State Lows

Community

WunderPhotos

Upload Photos

1,892,501 photos uploaded!

WunderBlog® & News

Nearby

Air Quality

  Air Quality AQ Index Pollutant
Not available.

Snow Depth

Station Depth Elevation

Earthquake Activity

City Distance Mag. Time & Date
Minimum magnitude displayed is 2.5.

Coastal Water Temperatures

Place Temperature

Stations

Nearby Weather Stations

Station Location Temp. Windchill Dew Point Humidity Wind Precip. Elev Updated Type
                   

Watches & Warnings

Wind Chill Advisory
Issued: 10:27 PM CST Feb. 12, 2016 – National Weather Service

... Wind Chill Advisory remains in effect until 9 am CST
Saturday...

* locations... portions of central Minnesota... including
Brainerd... Aitkin... Pine City and Hinckley... as well as all of
northwest Wisconsin.

* Wind chill values... as low as 35 below.

* Sustained winds... northwest 10 to 15 mph... becoming 5 to 10
mph tonight.

* Frostbite time... 20 to 30 minutes on exposed skin.

Precautionary/preparedness actions...

A Wind Chill Advisory means that very cold air and winds will
combine to generate low wind chills. This will result in frost
bite and lead to hypothermia if precautions are not taken. If you
must venture outdoors... make sure you wear a hat and gloves.